Portada
METAR-TAF:

METAR-TAF

Aeroports :

Bhubaneswar, Índia

latitud: 20-14-40N, longitud: 85-49-04E, altitud: 45 m

Observació

L'informe es va fer fa 41 minuts, a les 07:30 UTC
Vent 6 kt del Sud/Sud-Est
Temperatura 37°C
Humitat 37%
Pressió 1008 hPa
Visibilitat: 6000 m

METAR: VEBS 070730Z 15006KT 6000 NSC 37/20 Q1008 NOSIG

Hora: 13:41 (08:11 UTC)

Pronòstic

L'informe es va fer fa 3 hores i 11 minuts, a les 05:00 UTC
Pronòstic vàlid del 07 a les 06 UTC al 07 a les 15 UTC
Vent 3 kt del Sud/Sud-Oest
Visibilitat: 5000 m
calitja
Temporalment
l' 07 a les 11 UTC al 07 a les 13 UTC
Visibilitat: 2000 m
Cel ennuvolat a una alçada de 1800 ft
Escasses núvols a una alçada de 3000 ft, Cumulonimbus.
Cel cobert a una alçada de 9000 ft
tempesta, pluja

TAF: VEBS 070500Z 0706/0715 20003KT 5000 HZ NSC TEMPO 0711/0713 2000 -TSRA BKN018 FEW030CB OVC090

Observacions i pronòstics meteorològics de més de 4000 aeroports (METAR i TAF).

Les estacions disponibles són els punts grocs i vermells al mapa.

Posi el ratolí al punt desitjat per veure el nom de l'estació.

Feu clic per veure les observacions i els pronòstics meteorològics.

Per canviar el mapa: feu clic els botons verds amb una creu de color negre per apropar; al botó verd amb un guió per allunyar la imatge; o en les fletxes verdes per a mapes adjacents.


METAR-TAF: